Time;durP1;ratioP1;P1;durP2;ratioP2;P2;SDS_P1;SDS_P2;PMS_P1;PMS_P2;Temp;Humidity;BMP_temperature;BMP_pressure;BME280_temperature;BME280_humidity;BME280_pressure;Samples;Min_cycle;Max_cycle;Signal;HPM_P1;HPM_P2
2022/10/24 00:01:33;;;;;;;3.63;2.67;;;15.00;99.90;;;;;;5039448;28;20226;-71
2022/10/24 00:03:59;;;;;;;2.70;2.50;;;15.00;99.90;;;;;;5062395;28;20275;-72
2022/10/24 00:06:24;;;;;;;7.23;2.70;;;15.00;99.90;;;;;;5064454;28;20360;-73
2022/10/24 00:08:51;;;;;;;5.43;2.87;;;15.00;99.90;;;;;;5063116;28;20214;-72
2022/10/24 00:11:22;;;;;;;5.77;3.27;;;14.90;99.90;;;;;;5058763;28;20220;-73
2022/10/24 00:13:49;;;;;;;7.00;2.43;;;14.90;99.90;;;;;;5060192;28;20523;-73
2022/10/24 00:16:15;;;;;;;7.40;3.33;;;14.90;99.90;;;;;;5051144;28;21098;-73
2022/10/24 00:18:41;;;;;;;3.70;2.50;;;14.90;99.90;;;;;;5049830;28;20461;-73
2022/10/24 00:21:07;;;;;;;3.90;2.63;;;14.90;99.90;;;;;;5068927;28;20219;-72
2022/10/24 00:23:33;;;;;;;3.93;2.30;;;14.90;99.90;;;;;;5051498;28;20582;-72
2022/10/24 00:26:00;;;;;;;13.53;3.00;;;14.90;99.90;;;;;;5072932;28;21064;-72
2022/10/24 00:28:27;;;;;;;7.30;2.93;;;14.90;99.90;;;;;;5069437;28;20465;-73
2022/10/24 00:30:53;;;;;;;3.03;2.70;;;14.90;99.90;;;;;;5066545;28;20480;-74
2022/10/24 00:33:19;;;;;;;3.83;2.47;;;14.90;99.90;;;;;;5068241;28;20896;-72
2022/10/24 00:35:45;;;;;;;4.60;3.10;;;14.80;99.90;;;;;;5065440;28;20741;-73
2022/10/24 00:38:11;;;;;;;6.53;3.67;;;14.80;99.90;;;;;;5059357;28;20537;-71
2022/10/24 00:40:37;;;;;;;3.50;2.83;;;14.80;99.90;;;;;;5066512;28;20535;-73
2022/10/24 00:43:02;;;;;;;4.07;3.07;;;14.60;99.90;;;;;;5051894;28;20707;-71
2022/10/24 00:45:56;;;;;;;4.70;2.93;;;14.60;99.90;;;;;;5046330;28;20839;-72
2022/10/24 00:48:40;;;;;;;5.97;3.53;;;14.60;99.90;;;;;;5066615;28;20227;-72
2022/10/24 00:51:31;;;;;;;4.67;2.97;;;14.60;99.90;;;;;;5066877;28;20470;-73
2022/10/24 00:54:03;;;;;;;7.90;3.30;;;14.60;99.90;;;;;;5046880;28;20546;-73
2022/10/24 00:56:43;;;;;;;4.40;2.60;;;14.60;99.90;;;;;;5049425;28;20468;-71
2022/10/24 00:59:11;;;;;;;7.67;5.53;;;14.50;99.90;;;;;;5045577;28;20539;-72
2022/10/24 01:01:38;;;;;;;4.73;4.33;;;14.50;99.90;;;;;;5059923;28;20457;-71
2022/10/24 01:04:04;;;;;;;3.80;2.40;;;14.50;99.90;;;;;;5067720;28;20465;-73
2022/10/24 01:06:42;;;;;;;5.30;2.60;;;14.50;99.90;;;;;;5053692;28;20458;-74
2022/10/24 01:09:27;;;;;;;3.83;2.77;;;14.50;99.90;;;;;;5045121;28;20220;-71
2022/10/24 01:12:08;;;;;;;5.87;2.97;;;14.50;99.90;;;;;;5045546;28;20593;-72
2022/10/24 01:15:03;;;;;;;7.37;3.40;;;14.40;99.90;;;;;;5066763;28;20477;-72
2022/10/24 01:17:34;;;;;;;7.50;2.63;;;14.40;99.90;;;;;;5046154;28;20462;-72
2022/10/24 01:20:30;;;;;;;4.60;2.73;;;14.40;99.90;;;;;;5059552;28;20498;-73
2022/10/24 01:23:18;;;;;;;6.70;2.50;;;14.40;99.90;;;;;;5058442;28;20548;-73
2022/10/24 01:25:49;;;;;;;3.97;2.80;;;14.40;99.90;;;;;;5061582;28;20461;-72
2022/10/24 01:28:23;;;;;;;10.60;2.93;;;14.40;99.90;;;;;;5069887;28;20508;-72
2022/10/24 01:30:57;;;;;;;4.20;3.03;;;14.40;99.90;;;;;;5056984;28;20980;-73
2022/10/24 01:33:36;;;;;;;5.13;3.10;;;14.30;99.90;;;;;;5075819;28;20532;-72
2022/10/24 01:36:11;;;;;;;13.77;2.60;;;14.30;99.90;;;;;;5067372;28;20449;-72
2022/10/24 01:39:10;;;;;;;7.47;3.47;;;14.20;99.90;;;;;;5063458;28;20463;-72
2022/10/24 01:41:38;;;;;;;4.67;3.27;;;14.20;99.90;;;;;;5070145;28;20450;-73
2022/10/24 01:44:26;;;;;;;6.13;3.80;;;14.30;99.90;;;;;;5067193;28;20460;-72
2022/10/24 01:47:17;;;;;;;4.60;3.70;;;14.20;99.90;;;;;;5066985;28;20552;-74
2022/10/24 01:49:50;;;;;;;5.00;2.93;;;14.20;99.90;;;;;;5066833;28;20468;-73
2022/10/24 01:52:17;;;;;;;6.50;3.80;;;14.10;99.90;;;;;;5067066;28;20473;-73
2022/10/24 01:54:45;;;;;;;5.07;3.07;;;14.10;99.90;;;;;;5047809;28;20843;-73
2022/10/24 01:57:12;;;;;;;9.27;3.60;;;14.00;99.90;;;;;;5046810;28;20462;-74
2022/10/24 01:59:44;;;;;;;7.13;3.50;;;14.00;99.90;;;;;;5045237;28;20454;-73
2022/10/24 02:02:41;;;;;;;7.93;3.90;;;14.10;99.90;;;;;;5043586;28;20458;-73
2022/10/24 02:05:15;;;;;;;8.60;4.57;;;14.10;99.90;;;;;;5054921;28;20457;-74
2022/10/24 02:07:45;;;;;;;5.40;3.97;;;14.10;99.90;;;;;;5055298;28;20461;-74
2022/10/24 02:10:17;;;;;;;6.73;3.90;;;14.10;99.90;;;;;;5066703;28;20458;-73
2022/10/24 02:12:47;;;;;;;9.90;4.37;;;14.10;99.90;;;;;;5065308;28;20527;-73
2022/10/24 02:15:19;;;;;;;8.43;5.23;;;14.00;99.90;;;;;;5062741;28;20461;-74
2022/10/24 02:17:45;;;;;;;5.23;3.80;;;14.00;99.90;;;;;;5058757;28;20519;-73
2022/10/24 02:20:11;;;;;;;7.10;4.10;;;14.00;99.90;;;;;;5067076;28;20457;-74
2022/10/24 02:22:46;;;;;;;4.67;3.50;;;14.10;99.90;;;;;;5047234;28;20227;-72
2022/10/24 02:25:20;;;;;;;4.67;3.97;;;14.00;99.90;;;;;;5064378;28;20219;-72
2022/10/24 02:27:52;;;;;;;5.63;3.37;;;13.90;99.90;;;;;;5057167;28;20457;-73
2022/10/24 02:30:21;;;;;;;4.93;3.40;;;13.90;99.90;;;;;;5052180;28;20473;-73
2022/10/24 02:32:51;;;;;;;5.97;3.40;;;14.00;99.90;;;;;;5052164;28;20471;-73
2022/10/24 02:35:21;;;;;;;7.50;4.00;;;14.00;99.90;;;;;;5067491;28;20450;-73
2022/10/24 02:37:50;;;;;;;4.40;3.63;;;13.90;99.90;;;;;;5057428;28;20468;-73
2022/10/24 02:40:19;;;;;;;2.83;2.63;;;13.90;99.90;;;;;;5065589;28;20552;-74
2022/10/24 02:42:47;;;;;;;4.93;3.83;;;13.90;99.90;;;;;;5064948;28;20461;-73
2022/10/24 02:45:14;;;;;;;7.07;3.03;;;13.90;99.90;;;;;;5065759;28;20518;-73
2022/10/24 02:47:43;;;;;;;3.70;3.00;;;13.90;99.90;;;;;;5063491;28;21039;-72
2022/10/24 02:50:09;;;;;;;4.87;2.90;;;13.90;99.90;;;;;;5033214;28;20446;-72
2022/10/24 02:52:40;;;;;;;6.17;3.67;;;13.80;99.90;;;;;;5063500;28;20540;-70
2022/10/24 02:55:06;;;;;;;4.03;3.40;;;13.80;99.90;;;;;;5049636;28;20454;-73
2022/10/24 02:57:32;;;;;;;9.17;3.87;;;13.80;99.90;;;;;;5063836;28;20477;-74
2022/10/24 02:59:57;;;;;;;5.20;3.20;;;13.80;99.90;;;;;;5062956;28;20460;-74
2022/10/24 03:02:24;;;;;;;9.17;3.97;;;13.80;99.90;;;;;;5064930;28;20248;-73
2022/10/24 03:04:49;;;;;;;5.17;3.00;;;13.70;99.90;;;;;;5043178;28;20224;-73
2022/10/24 03:07:15;;;;;;;3.90;2.93;;;13.70;99.90;;;;;;5066004;28;20839;-73
2022/10/24 03:09:41;;;;;;;8.60;3.23;;;13.70;99.90;;;;;;5047058;28;20652;-72
2022/10/24 03:12:07;;;;;;;4.43;3.23;;;13.70;99.90;;;;;;5038942;28;20605;-72
2022/10/24 03:14:33;;;;;;;6.20;3.20;;;13.70;99.90;;;;;;5062502;28;20301;-70
2022/10/24 03:16:59;;;;;;;8.10;3.40;;;13.70;99.90;;;;;;5043642;28;20450;-71
2022/10/24 03:19:24;;;;;;;6.30;3.10;;;13.70;99.90;;;;;;5046300;28;21115;-71
2022/10/24 03:21:50;;;;;;;3.70;3.00;;;13.70;99.90;;;;;;5051843;28;20763;-71
2022/10/24 03:24:16;;;;;;;4.90;3.00;;;13.70;99.90;;;;;;5062787;28;20211;-72
2022/10/24 03:26:43;;;;;;;4.67;3.20;;;13.70;99.90;;;;;;5063586;28;20230;-70
2022/10/24 03:29:09;;;;;;;5.20;3.50;;;13.70;99.90;;;;;;5065411;28;20762;-70
2022/10/24 03:31:35;;;;;;;6.63;3.63;;;13.70;99.90;;;;;;5051589;28;20990;-71
2022/10/24 03:34:01;;;;;;;6.77;3.57;;;13.80;99.90;;;;;;5053176;28;20450;-74
2022/10/24 03:36:26;;;;;;;4.80;3.00;;;13.80;99.90;;;;;;5062183;28;20632;-72
2022/10/24 03:38:52;;;;;;;8.33;3.93;;;13.80;99.90;;;;;;5063193;28;20649;-73
2022/10/24 03:41:18;;;;;;;5.80;4.07;;;13.80;99.90;;;;;;5063130;28;20226;-73
2022/10/24 03:43:43;;;;;;;5.40;3.37;;;13.80;99.90;;;;;;5064269;28;20219;-74
2022/10/24 03:46:09;;;;;;;12.23;3.63;;;13.80;99.90;;;;;;5065575;28;20233;-74
2022/10/24 03:48:35;;;;;;;10.50;3.70;;;13.80;99.90;;;;;;5064856;28;20309;-74
2022/10/24 03:51:01;;;;;;;7.03;3.53;;;13.80;99.90;;;;;;5058633;28;20233;-74
2022/10/24 03:53:27;;;;;;;5.93;4.03;;;13.80;99.90;;;;;;5045635;28;20461;-73
2022/10/24 03:55:52;;;;;;;8.80;3.27;;;13.80;99.90;;;;;;5046806;28;20329;-73
2022/10/24 03:58:18;;;;;;;8.40;3.87;;;13.80;99.90;;;;;;5046232;28;20243;-73
2022/10/24 04:00:44;;;;;;;6.33;3.73;;;13.80;99.90;;;;;;5035793;28;20224;-73
2022/10/24 04:03:09;;;;;;;7.63;3.40;;;13.80;99.90;;;;;;5061366;28;20223;-73
2022/10/24 04:05:35;;;;;;;7.97;3.87;;;13.80;99.90;;;;;;5060547;28;20211;-73
2022/10/24 04:08:02;;;;;;;7.43;3.23;;;13.80;99.90;;;;;;5056559;28;20233;-72
2022/10/24 04:10:28;;;;;;;5.70;3.13;;;13.80;99.90;;;;;;5065129;28;20306;-73
2022/10/24 04:12:54;;;;;;;6.20;4.00;;;13.80;99.90;;;;;;5043285;28;20470;-73
2022/10/24 04:15:20;;;;;;;5.80;3.70;;;13.80;99.90;;;;;;5056159;28;20900;-73
2022/10/24 04:17:46;;;;;;;14.60;3.27;;;13.80;99.90;;;;;;5063507;28;20461;-73
2022/10/24 04:20:12;;;;;;;6.90;4.00;;;13.80;99.90;;;;;;5041638;28;20738;-71
2022/10/24 04:22:37;;;;;;;4.33;3.20;;;13.80;99.90;;;;;;5042802;28;20314;-72
2022/10/24 04:25:04;;;;;;;7.30;3.20;;;13.80;99.90;;;;;;5041687;28;20871;-73
2022/10/24 04:27:29;;;;;;;7.87;3.83;;;13.80;99.90;;;;;;5047990;28;20277;-71
2022/10/24 04:29:55;;;;;;;5.80;3.90;;;13.80;99.90;;;;;;5062457;28;20465;-73
2022/10/24 04:32:21;;;;;;;8.37;3.60;;;13.80;99.90;;;;;;5065570;28;20276;-73
2022/10/24 04:34:46;;;;;;;7.87;3.53;;;13.80;99.90;;;;;;5062401;28;20219;-73
2022/10/24 04:37:12;;;;;;;10.97;3.30;;;13.80;99.90;;;;;;5064513;28;21094;-72
2022/10/24 04:39:38;;;;;;;4.47;3.57;;;13.80;99.90;;;;;;5062572;28;20226;-72
2022/10/24 04:42:03;;;;;;;4.40;3.87;;;13.80;99.90;;;;;;5062505;28;20227;-74
2022/10/24 04:44:29;;;;;;;10.37;4.40;;;13.80;99.90;;;;;;5052355;28;20306;-74
2022/10/24 04:46:55;;;;;;;8.13;3.83;;;13.80;99.90;;;;;;5061989;28;20264;-73
2022/10/24 04:49:20;;;;;;;5.33;4.07;;;13.80;99.90;;;;;;5039199;28;20316;-73
2022/10/24 04:51:46;;;;;;;5.03;3.67;;;13.80;99.90;;;;;;5063889;28;20227;-73
2022/10/24 04:54:12;;;;;;;9.50;4.27;;;13.90;99.90;;;;;;5065377;28;20235;-73
2022/10/24 04:56:37;;;;;;;4.50;3.53;;;13.90;99.90;;;;;;5059966;28;20212;-73
2022/10/24 04:59:03;;;;;;;5.70;4.03;;;13.80;99.90;;;;;;5043750;28;20762;-73
2022/10/24 05:01:29;;;;;;;6.97;3.43;;;13.80;99.90;;;;;;5065679;28;20298;-74
2022/10/24 05:03:55;;;;;;;6.30;3.80;;;13.80;99.90;;;;;;5065521;28;20698;-73
2022/10/24 05:06:20;;;;;;;8.93;4.63;;;13.90;99.90;;;;;;5055506;28;20219;-72
2022/10/24 05:08:46;;;;;;;8.17;3.80;;;13.80;99.90;;;;;;5065836;28;20227;-74
2022/10/24 05:11:11;;;;;;;9.33;4.10;;;13.90;99.90;;;;;;5067801;28;20238;-73
2022/10/24 05:13:38;;;;;;;6.83;3.40;;;13.90;99.90;;;;;;5065058;28;20221;-73
2022/10/24 05:16:05;;;;;;;11.83;3.73;;;13.90;99.90;;;;;;5066450;28;20693;-73
2022/10/24 05:18:31;;;;;;;9.17;4.70;;;13.80;99.90;;;;;;5068232;28;20457;-71
2022/10/24 05:20:58;;;;;;;5.73;3.80;;;13.90;99.90;;;;;;5061419;28;20565;-73
2022/10/24 05:23:24;;;;;;;7.17;4.53;;;13.90;99.90;;;;;;5064583;28;20449;-72
2022/10/24 05:25:49;;;;;;;6.83;4.67;;;13.90;99.90;;;;;;5021804;28;20464;-74
2022/10/24 05:28:15;;;;;;;8.30;4.47;;;13.90;99.90;;;;;;5034653;28;21019;-73
2022/10/24 05:30:44;;;;;;;5.27;3.70;;;13.90;99.90;;;;;;5047455;28;20702;-74
2022/10/24 05:33:11;;;;;;;7.23;4.00;;;13.90;99.90;;;;;;5067235;28;20586;-73
2022/10/24 05:35:36;;;;;;;7.53;3.80;;;13.90;99.90;;;;;;5064504;28;20453;-74
2022/10/24 05:38:02;;;;;;;15.67;4.80;;;13.90;99.90;;;;;;5068339;28;20465;-72
2022/10/24 05:40:28;;;;;;;6.30;4.70;;;13.90;99.90;;;;;;5049890;28;20767;-73
2022/10/24 05:42:54;;;;;;;10.50;4.67;;;13.90;99.90;;;;;;5064564;28;20704;-72
2022/10/24 05:45:20;;;;;;;6.67;4.07;;;13.90;99.90;;;;;;5062492;28;20477;-73
2022/10/24 05:47:46;;;;;;;8.80;4.40;;;13.90;99.90;;;;;;5035552;28;20633;-72
2022/10/24 05:50:12;;;;;;;14.03;5.97;;;13.90;99.90;;;;;;5063443;28;20458;-73
2022/10/24 05:52:38;;;;;;;15.07;4.40;;;13.90;99.90;;;;;;5063389;28;20235;-72
2022/10/24 05:55:06;;;;;;;9.07;4.13;;;13.90;99.90;;;;;;5068215;28;20219;-72
2022/10/24 05:57:32;;;;;;;7.00;5.03;;;13.90;99.90;;;;;;5065905;28;20453;-74
2022/10/24 05:59:58;;;;;;;15.30;4.10;;;13.90;99.90;;;;;;5060205;28;20460;-73
2022/10/24 06:02:24;;;;;;;10.40;4.90;;;13.90;99.90;;;;;;5046150;28;20462;-73
2022/10/24 06:04:50;;;;;;;11.50;4.40;;;13.90;99.90;;;;;;5045156;28;20473;-73
2022/10/24 06:07:17;;;;;;;12.23;4.53;;;13.80;99.90;;;;;;5048345;28;20700;-73
2022/10/24 06:09:43;;;;;;;5.77;3.93;;;13.90;99.90;;;;;;5064547;28;20497;-73
2022/10/24 06:12:10;;;;;;;6.20;4.37;;;13.90;99.90;;;;;;5065757;28;20470;-72
2022/10/24 06:14:39;;;;;;;8.40;4.47;;;13.80;99.90;;;;;;5065886;28;20493;-73
2022/10/24 06:17:07;;;;;;;8.03;4.03;;;13.90;99.90;;;;;;5066273;28;21019;-73
2022/10/24 06:19:35;;;;;;;11.30;5.03;;;13.90;99.90;;;;;;5065663;28;21060;-72
2022/10/24 06:22:01;;;;;;;5.30;3.40;;;13.90;99.90;;;;;;5036147;28;20485;-73
2022/10/24 06:24:27;;;;;;;8.87;4.93;;;13.90;99.90;;;;;;5060891;28;20458;-73
2022/10/24 06:26:53;;;;;;;6.47;3.77;;;13.90;99.90;;;;;;5039059;28;20492;-73
2022/10/24 06:29:18;;;;;;;7.13;3.87;;;13.90;99.90;;;;;;5051963;28;20219;-73
2022/10/24 06:31:44;;;;;;;9.97;4.47;;;13.90;99.90;;;;;;5062988;28;20703;-73
2022/10/24 06:34:09;;;;;;;11.90;4.30;;;13.90;99.90;;;;;;5054117;28;20262;-73
2022/10/24 06:36:36;;;;;;;8.10;4.10;;;13.90;99.90;;;;;;5064729;28;20199;-73
2022/10/24 06:39:02;;;;;;;7.87;4.40;;;13.90;99.90;;;;;;5058605;28;20709;-72
2022/10/24 06:41:27;;;;;;;9.40;4.40;;;13.90;99.90;;;;;;5060307;28;20450;-72
2022/10/24 06:43:55;;;;;;;9.93;4.00;;;13.90;99.90;;;;;;5062466;28;20869;-71
2022/10/24 06:46:22;;;;;;;15.77;4.80;;;13.90;99.90;;;;;;5047269;28;20239;-72
2022/10/24 06:48:54;;;;;;;4.43;3.63;;;14.00;99.90;;;;;;5040458;28;20549;-73
2022/10/24 06:51:21;;;;;;;9.73;4.60;;;14.00;99.90;;;;;;5061407;28;20490;-72
2022/10/24 06:53:47;;;;;;;11.30;4.33;;;14.00;99.90;;;;;;5062452;28;20452;-72
2022/10/24 06:56:13;;;;;;;7.60;4.37;;;14.00;99.90;;;;;;5062012;28;20462;-72
2022/10/24 06:58:39;;;;;;;5.90;3.93;;;14.00;99.90;;;;;;5064399;28;20234;-71
2022/10/24 07:01:34;;;;;;;8.10;4.20;;;14.00;99.90;;;;;;5064375;28;20460;-72
2022/10/24 07:04:00;;;;;;;7.27;3.50;;;14.10;99.90;;;;;;5062222;28;20454;-72
2022/10/24 07:06:28;;;;;;;8.30;4.43;;;14.10;99.90;;;;;;5050667;28;20457;-71
2022/10/24 07:08:56;;;;;;;9.73;4.00;;;14.10;99.90;;;;;;5056633;28;20241;-74
2022/10/24 07:11:22;;;;;;;7.23;4.00;;;14.10;99.90;;;;;;5062341;28;20509;-71
2022/10/24 07:13:48;;;;;;;6.07;4.23;;;14.10;99.90;;;;;;5062792;28;20488;-71
2022/10/24 07:16:14;;;;;;;12.13;4.83;;;14.20;99.90;;;;;;5048002;28;20874;-71
2022/10/24 07:18:41;;;;;;;7.43;3.83;;;14.20;99.90;;;;;;5062166;28;20465;-73
2022/10/24 07:21:17;;;;;;;10.10;3.60;;;14.20;99.90;;;;;;5064743;28;20453;-71
2022/10/24 07:23:46;;;;;;;8.23;3.70;;;14.20;99.90;;;;;;5062871;28;20463;-73
2022/10/24 07:26:14;;;;;;;4.47;3.40;;;14.20;99.90;;;;;;5064671;28;20464;-72
2022/10/24 07:28:43;;;;;;;11.23;3.97;;;14.20;99.90;;;;;;5062884;28;20461;-72
2022/10/24 07:31:12;;;;;;;5.90;3.40;;;14.30;99.90;;;;;;5065576;28;20970;-73
2022/10/24 07:33:38;;;;;;;6.67;4.03;;;14.30;99.90;;;;;;5061915;28;20456;-72
2022/10/24 07:36:04;;;;;;;8.70;4.30;;;14.30;99.90;;;;;;5066207;28;20449;-73
2022/10/24 07:38:30;;;;;;;12.30;4.80;;;14.30;99.90;;;;;;5047453;28;20468;-74
2022/10/24 07:40:55;;;;;;;6.90;4.37;;;14.30;99.90;;;;;;5063290;28;20822;-73
2022/10/24 07:43:21;;;;;;;13.83;6.20;;;14.40;99.90;;;;;;5064546;28;20238;-72
2022/10/24 07:45:48;;;;;;;17.67;10.33;;;14.40;99.90;;;;;;5062500;28;20217;-73
2022/10/24 07:48:14;;;;;;;17.07;10.97;;;14.40;99.90;;;;;;5064703;28;20300;-73
2022/10/24 07:50:45;;;;;;;23.37;14.60;;;14.50;99.90;;;;;;5061947;28;20492;-73
2022/10/24 07:53:12;;;;;;;21.17;14.03;;;14.50;99.90;;;;;;5041584;28;20721;-72
2022/10/24 07:55:42;;;;;;;32.07;17.93;;;14.50;99.90;;;;;;5062880;28;20457;-72
2022/10/24 07:58:09;;;;;;;24.47;14.83;;;14.50;99.90;;;;;;5065784;28;20531;-71
2022/10/24 08:00:35;;;;;;;26.90;14.27;;;14.50;99.90;;;;;;5047273;28;20989;-73
2022/10/24 08:03:02;;;;;;;22.63;13.17;;;14.60;99.90;;;;;;5058327;28;20443;-73
2022/10/24 08:05:27;;;;;;;22.47;14.00;;;14.60;99.90;;;;;;5063536;28;20222;-74
2022/10/24 08:07:53;;;;;;;22.77;14.90;;;14.60;99.90;;;;;;5063510;28;20535;-73
2022/10/24 08:10:19;;;;;;;33.50;22.20;;;14.60;99.90;;;;;;5040139;28;20215;-73
2022/10/24 08:12:44;;;;;;;39.83;25.77;;;14.60;99.90;;;;;;5060868;28;20261;-72
2022/10/24 08:15:10;;;;;;;32.73;21.80;;;14.70;99.90;;;;;;5062221;28;20703;-74
2022/10/24 08:17:36;;;;;;;32.87;17.30;;;14.70;99.90;;;;;;5062400;28;20215;-74
2022/10/24 08:20:06;;;;;;;19.17;10.90;;;14.70;99.90;;;;;;5061558;28;20954;-73
2022/10/24 08:22:35;;;;;;;10.37;8.10;;;14.70;99.90;;;;;;5058738;28;20231;-75
2022/10/24 08:25:04;;;;;;;15.40;7.60;;;14.80;99.90;;;;;;5033923;28;20473;-74
2022/10/24 08:27:30;;;;;;;10.37;5.90;;;14.80;99.90;;;;;;5040965;28;20953;-74
2022/10/24 08:29:56;;;;;;;10.77;5.50;;;14.90;99.90;;;;;;5055970;28;20555;-75
2022/10/24 08:32:22;;;;;;;17.10;6.60;;;14.90;99.90;;;;;;5053430;28;20296;-73
2022/10/24 08:34:47;;;;;;;6.53;5.83;;;15.00;99.90;;;;;;5061306;28;20302;-73
2022/10/24 08:37:13;;;;;;;15.23;6.20;;;15.00;99.90;;;;;;5060607;28;20695;-75
2022/10/24 08:39:39;;;;;;;8.20;5.37;;;15.10;99.90;;;;;;5060445;28;20223;-73
2022/10/24 08:42:10;;;;;;;12.20;8.10;;;15.20;99.90;;;;;;5059637;28;20228;-74
2022/10/24 08:44:41;;;;;;;10.80;4.40;;;15.30;99.90;;;;;;5063565;28;20219;-74
2022/10/24 08:47:21;;;;;;;11.57;8.77;;;15.40;99.90;;;;;;5059148;28;20466;-72
2022/10/24 08:50:17;;;;;;;19.67;8.10;;;15.40;99.90;;;;;;5056607;28;20530;-74
2022/10/24 08:52:58;;;;;;;11.57;6.00;;;15.50;99.90;;;;;;5060265;28;20469;-73
2022/10/24 08:55:30;;;;;;;6.53;4.63;;;15.60;99.90;;;;;;5042290;28;20548;-72
2022/10/24 08:57:59;;;;;;;9.13;5.60;;;15.60;99.90;;;;;;5051981;28;21060;-71
2022/10/24 09:00:35;;;;;;;16.63;4.77;;;15.70;99.90;;;;;;5066397;28;20469;-72
2022/10/24 09:03:33;;;;;;;12.73;4.43;;;15.70;99.90;;;;;;5065248;28;20453;-72
2022/10/24 09:06:04;;;;;;;6.37;4.60;;;15.90;99.90;;;;;;5047725;28;20453;-74
2022/10/24 09:08:53;;;;;;;10.10;4.30;;;15.90;99.90;;;;;;5064882;28;20465;-74
2022/10/24 09:11:44;;;;;;;15.10;4.57;;;16.00;99.90;;;;;;5067787;28;20476;-74
2022/10/24 09:14:15;;;;;;;7.13;4.73;;;16.10;99.90;;;;;;5056785;28;20461;-74
2022/10/24 09:16:43;;;;;;;11.70;7.10;;;16.20;99.90;;;;;;5048828;28;20456;-73
2022/10/24 09:19:17;;;;;;;10.53;8.20;;;16.30;99.90;;;;;;5065239;28;20461;-74
2022/10/24 09:21:44;;;;;;;18.37;8.43;;;16.40;99.90;;;;;;5059898;28;20476;-73
2022/10/24 09:24:23;;;;;;;13.53;7.10;;;16.50;99.90;;;;;;5066991;28;20961;-74
2022/10/24 09:26:49;;;;;;;16.10;13.13;;;16.60;99.90;;;;;;5043796;28;20465;-74
2022/10/24 09:29:14;;;;;;;14.73;9.20;;;16.70;99.90;;;;;;5063321;28;20468;-73
2022/10/24 09:31:40;;;;;;;8.97;6.80;;;16.80;99.90;;;;;;5064365;28;20223;-73
2022/10/24 09:34:07;;;;;;;5.70;4.20;;;16.80;99.90;;;;;;5062000;28;20234;-72
2022/10/24 09:36:32;;;;;;;6.90;3.70;;;17.00;99.90;;;;;;5064120;28;20211;-74
2022/10/24 09:39:36;;;;;;;4.93;3.70;;;17.10;99.90;;;;;;5064633;28;20442;-73
2022/10/24 09:42:02;;;;;;;5.50;4.10;;;17.20;99.90;;;;;;5051403;28;20762;-74
2022/10/24 09:44:34;;;;;;;4.50;2.70;;;17.20;99.90;;;;;;5054241;28;20450;-74
2022/10/24 09:47:02;;;;;;;9.73;3.50;;;17.20;99.90;;;;;;5059162;28;20449;-74
2022/10/24 09:49:38;;;;;;;4.40;2.93;;;17.20;99.90;;;;;;5060613;28;20454;-74
2022/10/24 09:52:25;;;;;;;5.23;3.53;;;17.20;99.90;;;;;;5065410;28;20949;-74
2022/10/24 09:55:18;;;;;;;7.80;4.00;;;17.30;99.90;;;;;;5058867;28;20465;-74
2022/10/24 09:57:44;;;;;;;6.13;3.90;;;17.30;99.90;;;;;;5061982;28;20509;-74
2022/10/24 10:00:20;;;;;;;3.57;2.80;;;17.50;99.90;;;;;;5067565;28;20973;-74
2022/10/24 10:03:18;;;;;;;4.17;3.30;;;17.60;99.90;;;;;;5059362;28;20457;-74
2022/10/24 10:05:49;;;;;;;4.63;2.93;;;17.70;99.90;;;;;;5048895;28;20466;-72
2022/10/24 10:08:19;;;;;;;4.80;2.87;;;17.80;99.90;;;;;;5062220;28;20477;-73
2022/10/24 10:10:57;;;;;;;3.90;2.27;;;17.90;99.90;;;;;;5064613;28;20526;-74
2022/10/24 10:13:24;;;;;;;2.73;2.40;;;18.00;99.90;;;;;;5056381;28;20457;-74
2022/10/24 10:15:52;;;;;;;2.47;2.20;;;18.00;99.90;;;;;;5057750;28;20472;-74
2022/10/24 10:18:41;;;;;;;3.50;3.00;;;18.10;99.90;;;;;;5066320;28;20494;-74
2022/10/24 10:21:17;;;;;;;3.40;2.63;;;18.20;99.90;;;;;;5064314;28;20533;-73
2022/10/24 10:23:54;;;;;;;4.13;2.10;;;18.30;99.90;;;;;;5046266;28;20449;-74
2022/10/24 10:26:22;;;;;;;6.07;2.97;;;18.50;99.90;;;;;;5067811;28;20460;-74
2022/10/24 10:28:56;;;;;;;3.63;2.87;;;18.50;99.90;;;;;;5064680;28;20458;-74
2022/10/24 10:31:45;;;;;;;3.17;2.87;;;18.50;99.90;;;;;;5065301;28;20505;-72
2022/10/24 10:34:22;;;;;;;4.00;2.67;;;18.60;99.90;;;;;;5055270;28;20461;-73
2022/10/24 10:37:06;;;;;;;6.10;2.40;;;18.70;99.90;;;;;;5044108;28;20537;-74
2022/10/24 10:39:37;;;;;;;4.10;1.97;;;18.80;99.90;;;;;;5049046;28;20450;-75
2022/10/24 10:42:15;;;;;;;3.10;2.40;;;18.90;99.90;;;;;;5048077;28;20453;-73
2022/10/24 10:44:54;;;;;;;4.93;2.30;;;18.90;99.90;;;;;;5056251;28;20450;-74
2022/10/24 10:47:25;;;;;;;3.03;2.43;;;19.00;99.90;;;;;;5065009;28;20462;-75
2022/10/24 10:49:56;;;;;;;3.93;2.50;;;19.00;99.90;;;;;;5046506;28;20460;-74
2022/10/24 10:52:40;;;;;;;2.47;2.10;;;19.10;99.90;;;;;;5063844;28;20539;-73
2022/10/24 10:55:24;;;;;;;5.47;2.67;;;19.10;99.90;;;;;;5061113;28;20458;-74
2022/10/24 10:57:55;;;;;;;3.87;2.30;;;19.20;99.90;;;;;;5065035;28;20519;-74
2022/10/24 11:00:27;;;;;;;3.40;2.30;;;19.20;99.90;;;;;;5065331;28;20969;-74
2022/10/24 11:03:05;;;;;;;3.30;2.57;;;19.20;99.90;;;;;;5064022;28;20469;-74
2022/10/24 11:06:05;;;;;;;3.83;1.90;;;19.20;99.90;;;;;;5066548;28;20458;-74
2022/10/24 11:08:56;;;;;;;3.70;2.13;;;19.30;99.90;;;;;;5050406;28;20457;-74
2022/10/24 11:11:37;;;;;;;3.47;2.07;;;19.20;99.90;;;;;;5062806;28;20477;-75
2022/10/24 11:14:21;;;;;;;3.03;2.40;;;19.20;99.90;;;;;;5058190;28;20449;-74
2022/10/24 11:16:52;;;;;;;4.13;1.57;;;19.30;99.90;;;;;;5058497;28;20469;-74
2022/10/24 11:19:48;;;;;;;2.27;2.07;;;19.50;99.90;;;;;;5046433;28;20485;-72
2022/10/24 11:22:24;;;;;;;2.13;1.77;;;19.70;99.90;;;;;;5062463;28;20456;-74
2022/10/24 11:25:05;;;;;;;3.77;2.83;;;19.70;99.90;;;;;;5037359;28;20541;-73
2022/10/24 11:27:42;;;;;;;6.77;1.97;;;19.70;99.90;;;;;;5046133;28;20462;-74
2022/10/24 11:30:29;;;;;;;3.23;1.60;;;19.70;99.90;;;;;;5064587;28;20460;-73
2022/10/24 11:33:00;;;;;;;5.23;2.03;;;19.60;99.90;;;;;;5055925;28;20482;-74
2022/10/24 11:35:39;;;;;;;3.10;2.57;;;19.60;99.90;;;;;;5039273;28;20451;-72
2022/10/24 11:38:19;;;;;;;6.47;2.33;;;19.70;99.90;;;;;;5056086;28;20477;-74
2022/10/24 11:40:48;;;;;;;2.10;1.83;;;19.70;99.90;;;;;;5057382;28;20469;-74
2022/10/24 11:43:26;;;;;;;1.93;1.80;;;19.70;99.90;;;;;;5063897;28;20506;-72
2022/10/24 11:46:00;;;;;;;3.97;1.93;;;19.80;99.90;;;;;;5062096;28;20519;-73
2022/10/24 11:48:54;;;;;;;2.67;1.70;;;19.70;99.90;;;;;;5044469;28;20469;-73
2022/10/24 11:51:37;;;;;;;4.23;3.27;;;19.80;99.90;;;;;;5062146;28;20484;-74
2022/10/24 11:54:52;;;;;;;13.50;6.37;;;19.80;99.90;;;;;;5043733;28;20454;-73
2022/10/24 11:57:23;;;;;;;5.13;3.27;;;19.90;99.90;;;;;;5047639;28;20485;-73
2022/10/24 11:59:52;;;;;;;2.50;1.90;;;20.00;99.90;;;;;;5050307;28;20450;-73
2022/10/24 12:02:42;;;;;;;3.60;1.77;;;20.10;99.90;;;;;;5063149;28;20442;-72
2022/10/24 12:05:38;;;;;;;2.37;1.60;;;20.10;99.90;;;;;;5063343;28;20457;-73
2022/10/24 12:08:59;;;;;;;4.90;1.70;;;20.10;99.90;;;;;;5068998;28;20972;-72
2022/10/24 12:11:35;;;;;;;2.60;2.40;;;20.10;99.90;;;;;;5013562;28;20517;-73
2022/10/24 12:14:35;;;;;;;3.93;1.63;;;20.20;99.90;;;;;;5032170;28;20478;-74
2022/10/24 12:17:14;;;;;;;2.60;1.70;;;20.20;99.90;;;;;;5025683;28;20458;-73
2022/10/24 12:19:41;;;;;;;1.80;1.40;;;20.20;99.90;;;;;;5040510;28;21278;-74
2022/10/24 12:22:28;;;;;;;2.90;1.70;;;20.20;99.90;;;;;;5044448;28;20535;-73
2022/10/24 12:25:17;;;;;;;2.50;1.70;;;20.30;99.90;;;;;;5041527;28;20458;-72
2022/10/24 12:27:43;;;;;;;3.33;2.30;;;20.30;99.90;;;;;;5034898;28;20469;-74
2022/10/24 12:30:09;;;;;;;2.73;1.97;;;20.30;99.90;;;;;;5039820;28;20458;-71
2022/10/24 12:32:40;;;;;;;4.27;1.93;;;20.30;99.90;;;;;;5030692;28;20304;-74
2022/10/24 12:35:36;;;;;;;2.80;2.10;;;20.30;99.90;;;;;;5033131;28;20232;-73
2022/10/24 12:38:13;;;;;;;3.37;1.93;;;20.30;99.90;;;;;;5045956;28;20603;-73
2022/10/24 12:40:55;;;;;;;2.40;1.40;;;20.40;99.90;;;;;;5041326;28;20451;-72
2022/10/24 12:43:31;;;;;;;1.90;1.30;;;20.50;99.90;;;;;;5043814;28;20505;-72
2022/10/24 12:46:03;;;;;;;1.57;1.00;;;20.50;99.90;;;;;;5056348;28;20453;-71
2022/10/24 12:48:31;;;;;;;1.10;1.00;;;20.60;99.90;;;;;;5037914;28;20526;-72
2022/10/24 12:50:59;;;;;;;1.87;1.77;;;20.50;99.90;;;;;;5045001;28;20581;-72
2022/10/24 12:53:38;;;;;;;2.30;1.13;;;20.50;99.90;;;;;;5047098;28;20473;-72
2022/10/24 12:56:11;;;;;;;1.57;1.10;;;20.60;99.90;;;;;;5048420;28;20457;-71
2022/10/24 12:58:41;;;;;;;6.90;1.07;;;20.70;99.90;;;;;;5076196;28;20534;-71
2022/10/24 13:01:28;;;;;;;6.90;1.13;;;20.60;99.90;;;;;;5066546;28;20464;-71
2022/10/24 13:04:07;;;;;;;1.23;1.07;;;20.70;99.90;;;;;;5064756;28;20510;-72
2022/10/24 13:06:41;;;;;;;2.30;1.30;;;20.60;99.90;;;;;;5053304;28;20453;-72